首页
METAR-TAF:

METAR-TAF

机场 :

埃因霍温, 荷兰

纬度: 51-27N, 经度: 005-25E, 海拔: 23米

当前天气观测

该预报发布于31分钟前的14:55 UTC
风速6节,风向,在东南西南之间变化
温度 25°C
湿度 39%
气压 1018 hPa
能见度10公里或以上
1500米以下无云,无积雨云

METAR: EHEH 171455Z AUTO 15004KT 140V230 9999 SCT058 SCT064 25/10 Q1018 BLU 18006KT CAVOK

时间: 17:26 (15:26 UTC)

预报

该预报发布于4小时和16分钟前的11:10 UTC
预报有效从17日的 12点(UTC)到 18日的 18点(UTC)
风速5节,风向南转西南
能见度10公里或以上
1500米以下无云,无积雨云
成为
从 17日的 18点(UTC)到 17日的 20点(UTC)
风速3节,风向多变
几率 30%
从 18日的 00点(UTC)到 18日的 04点(UTC)
能見度: 4000
轻雾, 浅雾
几率 30% :
短暂存在
从 18日的 12点(UTC)到 18日的 18点(UTC)
能見度: 4000
散云层高于4000英尺, 积雨云.
阵雨

TAF: EHEH 171110Z 1712/1818 20005KT CAVOK BECMG 1718/1720 VRB03KT PROB30 1800/1804 4000 BR MIFG PROB30 TEMPO 1812/1818 4000 SHRA SCT040CB

超过4000个机场的气象观测和天气预报(METAR&TAF报告)。

可查询的气象台以黄色和红色小点在地图上表示。

将鼠标移到小点上方,可查看气象台名称。

然后点击查看天气观测和预报。

如需切换地图:点击带黑十字的绿色按钮放大地图;点击带横线的绿色按钮缩小地图;或者点击绿色箭头查看邻近地区的地图。


METAR-TAF: